createdAt,value
2018-08-22T00:01:46.838Z,15.70
2018-08-22T00:04:20.282Z,15.66
2018-08-22T00:06:53.715Z,15.61
2018-08-22T00:09:27.111Z,15.53
2018-08-22T00:12:00.734Z,15.44
2018-08-22T00:14:34.208Z,15.33
2018-08-22T00:17:07.656Z,15.35
2018-08-22T00:19:41.068Z,15.36
2018-08-22T00:22:14.507Z,15.28
2018-08-22T00:24:47.911Z,15.28
2018-08-22T00:27:21.363Z,15.27
2018-08-22T00:29:54.784Z,15.36
2018-08-22T00:32:28.236Z,15.35
2018-08-22T00:35:01.646Z,15.29
2018-08-22T00:37:35.067Z,15.23
2018-08-22T00:40:08.469Z,15.27
2018-08-22T00:42:41.915Z,15.23
2018-08-22T00:45:15.328Z,15.18
2018-08-22T00:47:48.763Z,15.15
2018-08-22T00:50:22.187Z,15.11
2018-08-22T00:52:55.614Z,15.10
2018-08-22T00:55:29.003Z,15.12
2018-08-22T00:58:02.539Z,15.06
2018-08-22T01:00:35.941Z,15.03
2018-08-22T01:03:09.421Z,15.00
2018-08-22T01:05:42.816Z,14.93
2018-08-22T01:08:16.289Z,14.91
2018-08-22T01:10:49.667Z,14.89
2018-08-22T01:13:23.087Z,14.85
2018-08-22T01:15:56.555Z,14.84
2018-08-22T01:18:29.998Z,14.93
2018-08-22T01:21:03.385Z,14.89
2018-08-22T01:23:36.844Z,14.83
2018-08-22T01:26:10.232Z,14.87
2018-08-22T01:28:43.668Z,14.76
2018-08-22T01:31:17.132Z,14.74
2018-08-22T01:33:50.622Z,14.75
2018-08-22T01:36:24.050Z,14.72
2018-08-22T01:38:57.473Z,14.74
2018-08-22T01:41:31.100Z,14.73
2018-08-22T01:44:04.543Z,14.71
2018-08-22T01:46:37.928Z,14.68
2018-08-22T01:49:11.347Z,14.65
2018-08-22T01:51:44.747Z,14.60
2018-08-22T01:54:18.193Z,14.54
2018-08-22T01:56:51.596Z,14.54
2018-08-22T01:59:25.022Z,14.52
2018-08-22T02:01:58.432Z,14.46
2018-08-22T02:04:31.876Z,14.44
2018-08-22T02:07:05.399Z,14.46
2018-08-22T02:09:38.864Z,14.46
2018-08-22T02:12:12.305Z,14.47
2018-08-22T02:14:45.714Z,14.45
2018-08-22T02:17:19.110Z,14.43
2018-08-22T02:19:52.520Z,14.43
2018-08-22T02:22:25.925Z,14.39
2018-08-22T02:24:59.538Z,14.31
2018-08-22T02:27:32.929Z,14.32
2018-08-22T02:30:06.368Z,14.33
2018-08-22T02:32:39.770Z,14.34
2018-08-22T02:35:13.209Z,14.31
2018-08-22T02:37:46.609Z,14.30
2018-08-22T02:40:20.022Z,14.23
2018-08-22T02:42:53.433Z,14.21
2018-08-22T02:45:26.861Z,14.18
2018-08-22T02:48:00.296Z,14.20
2018-08-22T02:50:33.691Z,14.20
2018-08-22T02:53:07.102Z,14.17
2018-08-22T02:55:40.893Z,14.17
2018-08-22T02:58:14.300Z,14.16
2018-08-22T03:00:47.754Z,14.13
2018-08-22T03:03:21.157Z,14.07
2018-08-22T03:05:54.592Z,14.01
2018-08-22T03:08:28.002Z,14.01
2018-08-22T03:11:01.482Z,13.96
2018-08-22T03:13:34.876Z,13.92
2018-08-22T03:16:08.359Z,13.89
2018-08-22T03:18:41.783Z,13.84
2018-08-22T03:21:15.239Z,13.82
2018-08-22T03:23:48.692Z,13.76
2018-08-22T03:26:22.127Z,13.77
2018-08-22T03:28:55.560Z,13.73
2018-08-22T03:31:28.953Z,13.75
2018-08-22T03:34:02.393Z,13.71
2018-08-22T03:36:35.787Z,13.71
2018-08-22T03:39:09.597Z,13.69
2018-08-22T03:41:43.007Z,13.69
2018-08-22T03:44:16.443Z,13.69
2018-08-22T03:46:49.832Z,13.65
2018-08-22T03:49:23.234Z,13.63
2018-08-22T03:51:56.624Z,13.62
2018-08-22T03:54:30.033Z,13.63
2018-08-22T03:57:03.461Z,13.67
2018-08-22T03:59:36.892Z,13.59
2018-08-22T04:02:10.344Z,13.59
2018-08-22T04:04:43.785Z,13.55
2018-08-22T04:07:17.215Z,13.56
2018-08-22T04:09:50.677Z,13.56
2018-08-22T04:12:24.091Z,13.56
2018-08-22T04:14:57.486Z,13.55
2018-08-22T04:17:34.963Z,13.52
2018-08-22T04:20:08.785Z,13.51
2018-08-22T04:22:42.232Z,13.43
2018-08-22T04:25:15.657Z,13.49
2018-08-22T04:27:49.060Z,13.49
2018-08-22T04:30:22.476Z,13.50
2018-08-22T04:32:55.852Z,13.50
2018-08-22T04:35:29.270Z,13.54
2018-08-22T04:38:02.690Z,13.57
2018-08-22T04:40:36.110Z,13.60
2018-08-22T04:43:09.545Z,13.61
2018-08-22T04:45:42.954Z,13.59
2018-08-22T04:48:16.377Z,13.57
2018-08-22T04:50:49.795Z,13.58
2018-08-22T04:53:23.368Z,13.58
2018-08-22T04:55:56.806Z,13.58
2018-08-22T04:58:30.263Z,13.58
2018-08-22T05:01:03.680Z,13.67
2018-08-22T05:03:37.075Z,13.75
2018-08-22T05:06:10.500Z,13.81
2018-08-22T05:08:43.892Z,13.85
2018-08-22T05:11:17.339Z,13.95
2018-08-22T05:13:50.733Z,14.04
2018-08-22T05:16:24.152Z,14.15
2018-08-22T05:18:57.588Z,14.27
2018-08-22T05:21:31.005Z,14.43
2018-08-22T05:24:04.419Z,14.58
2018-08-22T05:26:37.877Z,14.71
2018-08-22T05:29:11.480Z,14.91
2018-08-22T05:31:44.901Z,15.10
2018-08-22T05:34:18.328Z,15.24
2018-08-22T05:36:51.760Z,15.41
2018-08-22T05:39:25.165Z,15.57
2018-08-22T05:41:58.586Z,15.71
2018-08-22T05:44:32.057Z,15.85
2018-08-22T05:47:05.652Z,16.03
2018-08-22T05:49:39.085Z,16.20
2018-08-22T05:52:12.497Z,16.38
2018-08-22T05:54:45.875Z,16.54
2018-08-22T05:57:19.265Z,16.68
2018-08-22T05:59:52.650Z,16.83
2018-08-22T06:02:26.053Z,17.02
2018-08-22T06:04:59.478Z,17.21
2018-08-22T06:07:32.882Z,17.33
2018-08-22T06:10:06.387Z,17.52
2018-08-22T06:12:39.804Z,17.71
2018-08-22T06:15:13.217Z,17.87
2018-08-22T06:17:46.652Z,18.05
2018-08-22T06:20:20.077Z,18.23
2018-08-22T06:22:53.511Z,18.37
2018-08-22T06:25:26.969Z,18.51
2018-08-22T06:28:00.356Z,18.69
2018-08-22T06:30:33.745Z,18.86
2018-08-22T06:33:07.297Z,19.00
2018-08-22T06:35:40.657Z,19.20
2018-08-22T06:38:14.098Z,19.37
2018-08-22T06:40:47.525Z,19.58
2018-08-22T06:43:21.077Z,19.72
2018-08-22T06:45:54.475Z,19.89
2018-08-22T06:48:27.914Z,20.11
2018-08-22T06:51:01.317Z,20.31
2018-08-22T06:53:34.738Z,20.45
2018-08-22T06:56:08.181Z,20.62
2018-08-22T06:58:41.696Z,20.77
2018-08-22T07:01:15.123Z,20.98
2018-08-22T07:03:48.538Z,21.00
2018-08-22T07:06:21.966Z,21.16
2018-08-22T07:08:55.397Z,21.39
2018-08-22T07:11:28.775Z,21.52
2018-08-22T07:14:02.272Z,21.56
2018-08-22T07:16:35.654Z,21.79
2018-08-22T07:19:09.049Z,21.87
2018-08-22T07:21:42.403Z,21.90
2018-08-22T07:24:15.802Z,22.13
2018-08-22T07:26:50.071Z,22.35
2018-08-22T07:29:23.436Z,22.57
2018-08-22T07:31:56.827Z,22.61
2018-08-22T07:34:30.247Z,22.91
2018-08-22T07:37:03.676Z,23.04
2018-08-22T07:39:37.083Z,23.21
2018-08-22T07:42:10.455Z,23.36
2018-08-22T07:44:43.846Z,23.29
2018-08-22T07:47:17.317Z,23.47
2018-08-22T07:49:50.723Z,23.55
2018-08-22T07:52:24.150Z,23.73
2018-08-22T07:54:57.573Z,23.91
2018-08-22T07:57:31.005Z,23.98
2018-08-22T08:00:04.440Z,24.20
2018-08-22T08:02:37.923Z,24.46
2018-08-22T08:05:11.348Z,24.63
2018-08-22T08:07:44.791Z,24.75
2018-08-22T08:10:22.361Z,24.91
2018-08-22T08:12:55.783Z,25.06
2018-08-22T08:15:29.196Z,24.93
2018-08-22T08:18:02.637Z,25.18
2018-08-22T08:20:36.067Z,25.30
2018-08-22T08:23:09.490Z,25.42
2018-08-22T08:25:42.902Z,25.60
2018-08-22T08:28:16.356Z,25.76
2018-08-22T08:30:49.788Z,25.65
2018-08-22T08:33:23.193Z,25.69
2018-08-22T08:35:56.652Z,26.07
2018-08-22T08:38:30.056Z,26.35
2018-08-22T08:41:03.431Z,26.18
2018-08-22T08:43:36.861Z,26.35
2018-08-22T08:46:11.044Z,26.60
2018-08-22T08:48:44.474Z,27.42
2018-08-22T08:51:17.869Z,28.64
2018-08-22T08:53:51.302Z,29.04
2018-08-22T08:56:24.771Z,28.98
2018-08-22T08:58:58.174Z,28.38
2018-08-22T09:01:31.594Z,27.67
2018-08-22T09:04:05.091Z,27.45
2018-08-22T09:06:38.502Z,27.38
2018-08-22T09:09:11.897Z,27.30
2018-08-22T09:12:04.740Z,27.36
2018-08-22T09:14:38.604Z,27.25
2018-08-22T09:17:12.010Z,27.43
2018-08-22T09:19:45.420Z,27.62
2018-08-22T09:22:19.183Z,27.66
2018-08-22T09:24:52.596Z,27.72
2018-08-22T09:27:25.952Z,27.99
2018-08-22T09:29:59.336Z,27.93
2018-08-22T09:32:32.787Z,27.73
2018-08-22T09:35:06.229Z,27.79
2018-08-22T09:37:39.643Z,27.69
2018-08-22T09:40:13.078Z,27.96
2018-08-22T09:42:46.438Z,28.09
2018-08-22T09:45:19.824Z,28.18
2018-08-22T09:47:53.220Z,28.37
2018-08-22T09:50:26.659Z,28.53
2018-08-22T09:53:00.045Z,28.48
2018-08-22T09:55:33.463Z,28.58
2018-08-22T09:58:06.894Z,28.73
2018-08-22T10:00:45.414Z,28.73
2018-08-22T10:03:18.788Z,28.95
2018-08-22T10:05:52.226Z,28.98
2018-08-22T10:08:25.610Z,28.98
2018-08-22T10:10:59.029Z,28.90
2018-08-22T10:13:32.481Z,28.90
2018-08-22T10:16:05.918Z,28.90
2018-08-22T10:18:39.297Z,28.96
2018-08-22T10:21:12.723Z,29.23
2018-08-22T10:23:46.125Z,29.28
2018-08-22T10:26:19.556Z,29.11
2018-08-22T10:28:53.559Z,29.06
2018-08-22T10:31:27.296Z,28.77
2018-08-22T10:34:00.728Z,28.90
2018-08-22T10:36:34.176Z,29.01
2018-08-22T10:39:08.719Z,29.12
2018-08-22T10:41:42.166Z,29.04
2018-08-22T10:44:15.582Z,29.08
2018-08-22T10:46:48.985Z,29.26
2018-08-22T10:49:22.348Z,29.43
2018-08-22T10:51:55.755Z,28.94
2018-08-22T10:54:29.182Z,28.84
2018-08-22T10:57:02.613Z,28.91
2018-08-22T10:59:36.062Z,28.98
2018-08-22T11:02:09.467Z,29.08
2018-08-22T11:04:42.901Z,29.22
2018-08-22T11:07:16.315Z,29.61
2018-08-22T11:09:49.788Z,29.92
2018-08-22T11:12:23.155Z,30.00
2018-08-22T11:14:56.565Z,29.68
2018-08-22T11:17:29.993Z,29.41
2018-08-22T11:20:03.459Z,29.58
2018-08-22T11:22:48.300Z,30.16
2018-08-22T11:25:33.052Z,30.24
2018-08-22T11:28:17.833Z,30.21
2018-08-22T11:31:02.580Z,30.17
2018-08-22T11:33:47.277Z,29.95
2018-08-22T11:36:19.583Z,30.03
2018-08-22T11:38:53.035Z,30.07
2018-08-22T11:41:26.425Z,30.32
2018-08-22T11:43:59.845Z,30.37
2018-08-22T11:46:33.280Z,30.31
2018-08-22T11:49:06.657Z,29.61
2018-08-22T11:51:40.114Z,29.86
2018-08-22T11:54:13.505Z,30.02
2018-08-22T11:56:46.946Z,30.10
2018-08-22T11:59:20.799Z,30.16
2018-08-22T12:01:54.303Z,30.30
2018-08-22T12:04:27.702Z,30.08
2018-08-22T12:07:01.117Z,30.48
2018-08-22T12:09:34.508Z,30.56
2018-08-22T12:12:07.945Z,30.76
2018-08-22T12:14:41.325Z,30.83
2018-08-22T12:17:14.744Z,30.90
2018-08-22T12:19:48.112Z,30.87
2018-08-22T12:22:21.498Z,30.68
2018-08-22T12:24:54.869Z,30.67
2018-08-22T12:27:28.271Z,30.79
2018-08-22T12:30:01.669Z,30.67
2018-08-22T12:32:35.100Z,30.61
2018-08-22T12:35:08.782Z,30.51
2018-08-22T12:37:42.183Z,30.42
2018-08-22T12:40:15.557Z,30.54
2018-08-22T12:42:48.975Z,30.95
2018-08-22T12:45:22.361Z,31.00
2018-08-22T12:47:56.031Z,31.09
2018-08-22T12:50:29.529Z,30.84
2018-08-22T12:53:02.855Z,30.68
2018-08-22T12:55:36.245Z,30.79
2018-08-22T12:58:09.670Z,30.73
2018-08-22T13:00:43.030Z,30.75
2018-08-22T13:03:16.415Z,30.76
2018-08-22T13:05:49.793Z,30.69
2018-08-22T13:08:23.209Z,30.75
2018-08-22T13:10:56.606Z,30.82
2018-08-22T13:13:30.288Z,30.83
2018-08-22T13:16:03.690Z,30.60
2018-08-22T13:18:37.084Z,30.59
2018-08-22T13:21:10.472Z,30.39
2018-08-22T13:23:43.889Z,30.38
2018-08-22T13:26:17.300Z,30.41
2018-08-22T13:28:50.709Z,30.45
2018-08-22T13:31:24.096Z,30.32
2018-08-22T13:33:57.476Z,30.37
2018-08-22T13:36:30.864Z,30.43
2018-08-22T13:39:05.326Z,30.51
2018-08-22T13:41:38.688Z,30.66
2018-08-22T13:44:12.090Z,30.74
2018-08-22T13:46:45.451Z,30.89
2018-08-22T13:49:18.852Z,30.72
2018-08-22T13:51:52.213Z,30.51
2018-08-22T13:54:25.627Z,30.45
2018-08-22T13:56:59.012Z,30.56
2018-08-22T13:59:32.951Z,30.64
2018-08-22T14:02:06.337Z,30.65
2018-08-22T14:04:39.758Z,30.66
2018-08-22T14:07:13.140Z,30.63
2018-08-22T14:09:46.613Z,30.67
2018-08-22T14:12:20.020Z,30.59
2018-08-22T14:14:53.391Z,30.64
2018-08-22T14:17:26.828Z,30.54
2018-08-22T14:20:00.209Z,30.58
2018-08-22T14:22:33.713Z,30.66
2018-08-22T14:25:07.039Z,30.48
2018-08-22T14:27:40.423Z,30.51
2018-08-22T14:30:13.788Z,30.47
2018-08-22T14:32:47.203Z,30.42
2018-08-22T14:35:20.612Z,30.44
2018-08-22T14:37:54.005Z,30.45
2018-08-22T14:40:27.485Z,30.43
2018-08-22T14:43:00.896Z,30.45
2018-08-22T14:45:40.692Z,30.34
2018-08-22T14:48:14.135Z,30.28
2018-08-22T14:50:47.510Z,30.31
2018-08-22T14:53:20.937Z,30.25
2018-08-22T14:55:54.369Z,30.26
2018-08-22T14:58:27.741Z,30.22
2018-08-22T15:01:01.168Z,30.23
2018-08-22T15:03:34.786Z,30.31
2018-08-22T15:06:07.981Z,30.36
2018-08-22T15:08:41.385Z,30.41
2018-08-22T15:11:14.756Z,30.47
2018-08-22T15:13:48.166Z,30.45
2018-08-22T15:16:21.545Z,30.40
2018-08-22T15:18:55.538Z,30.21
2018-08-22T15:21:28.954Z,30.17
2018-08-22T15:24:02.421Z,30.03
2018-08-22T15:26:36.090Z,30.03
2018-08-22T15:29:09.583Z,30.05
2018-08-22T15:31:43.194Z,29.99
2018-08-22T15:34:16.801Z,29.90
2018-08-22T15:36:50.406Z,29.74
2018-08-22T15:39:23.803Z,29.69
2018-08-22T15:41:57.268Z,29.69
2018-08-22T15:44:30.656Z,29.74
2018-08-22T15:47:04.192Z,29.70
2018-08-22T15:49:37.608Z,29.75
2018-08-22T15:52:11.000Z,29.75
2018-08-22T15:54:55.939Z,29.73
2018-08-22T15:57:37.485Z,29.74
2018-08-22T16:00:10.910Z,29.76
2018-08-22T16:02:44.773Z,29.80
2018-08-22T16:05:18.387Z,29.78
2018-08-22T16:07:52.287Z,29.74
2018-08-22T16:10:26.055Z,29.64
2018-08-22T16:12:59.488Z,29.51
2018-08-22T16:15:33.974Z,29.47
2018-08-22T16:18:09.343Z,29.44
2018-08-22T16:20:52.167Z,29.37
2018-08-22T16:23:30.344Z,29.30
2018-08-22T16:26:04.744Z,29.30
2018-08-22T16:28:50.749Z,29.21
2018-08-22T16:31:29.240Z,29.17
2018-08-22T16:34:02.666Z,29.20
2018-08-22T16:36:36.129Z,29.17
2018-08-22T16:39:14.356Z,29.19
2018-08-22T16:41:47.844Z,29.15
2018-08-22T16:44:21.248Z,29.17
2018-08-22T16:46:54.633Z,29.19
2018-08-22T16:49:28.129Z,29.18
2018-08-22T16:52:01.501Z,29.14
2018-08-22T16:54:35.179Z,29.11
2018-08-22T16:57:08.743Z,29.04
2018-08-22T16:59:42.150Z,29.02
2018-08-22T17:02:15.558Z,29.00
2018-08-22T17:04:49.068Z,28.99
2018-08-22T17:07:22.458Z,28.98
2018-08-22T17:09:56.377Z,28.89
2018-08-22T17:12:34.512Z,28.77
2018-08-22T17:15:08.765Z,28.66
2018-08-22T17:17:42.143Z,28.58
2018-08-22T17:20:15.785Z,28.50
2018-08-22T17:22:49.376Z,28.44
2018-08-22T17:25:22.821Z,28.37
2018-08-22T17:27:56.401Z,28.30
2018-08-22T17:30:40.133Z,28.21
2018-08-22T17:33:13.755Z,28.12
2018-08-22T17:35:47.547Z,28.04
2018-08-22T17:38:21.536Z,28.00
2018-08-22T17:40:55.083Z,27.94
2018-08-22T17:43:28.487Z,27.87
2018-08-22T17:46:01.963Z,27.77
2018-08-22T17:48:35.439Z,27.64
2018-08-22T17:51:08.853Z,27.53
2018-08-22T17:53:42.239Z,27.40
2018-08-22T17:56:15.649Z,27.26
2018-08-22T17:58:49.514Z,27.10
2018-08-22T18:01:23.478Z,26.97
2018-08-22T18:03:57.152Z,26.89
2018-08-22T18:06:31.164Z,26.71
2018-08-22T18:09:05.178Z,26.58
2018-08-22T18:11:38.557Z,26.49
2018-08-22T18:14:12.115Z,26.38
2018-08-22T18:16:46.394Z,26.26
2018-08-22T18:19:19.824Z,26.13
2018-08-22T18:21:53.391Z,25.99
2018-08-22T18:24:26.825Z,25.87
2018-08-22T18:27:02.495Z,25.78
2018-08-22T18:29:36.008Z,25.63
2018-08-22T18:32:09.584Z,25.52
2018-08-22T18:34:57.578Z,25.38
2018-08-22T18:37:31.808Z,25.26
2018-08-22T18:40:26.112Z,25.13
2018-08-22T18:43:01.766Z,24.97
2018-08-22T18:45:35.175Z,24.93
2018-08-22T18:48:08.617Z,24.83
2018-08-22T18:50:42.180Z,24.75
2018-08-22T18:53:16.711Z,24.61
2018-08-22T18:55:54.583Z,24.51
2018-08-22T18:58:28.076Z,24.38
2018-08-22T19:01:03.224Z,24.27
2018-08-22T19:03:36.843Z,24.09
2018-08-22T19:06:10.248Z,24.03
2018-08-22T19:08:43.664Z,23.95
2018-08-22T19:11:17.120Z,23.82
2018-08-22T19:13:50.531Z,23.64
2018-08-22T19:16:23.976Z,23.55
2018-08-22T19:18:57.380Z,23.45
2018-08-22T19:21:30.818Z,23.38
2018-08-22T19:24:04.197Z,23.32
2018-08-22T19:26:37.619Z,23.25
2018-08-22T19:29:11.395Z,23.15
2018-08-22T19:31:49.166Z,23.03
2018-08-22T19:34:22.864Z,22.88
2018-08-22T19:36:56.439Z,22.78
2018-08-22T19:39:30.088Z,22.67
2018-08-22T19:42:03.765Z,22.58
2018-08-22T19:44:37.335Z,22.56
2018-08-22T19:47:10.928Z,22.52
2018-08-22T19:49:44.527Z,22.38
2018-08-22T19:52:18.140Z,22.30
2018-08-22T19:54:51.709Z,22.22
2018-08-22T19:57:38.428Z,22.17
2018-08-22T20:00:13.212Z,22.09
2018-08-22T20:02:46.781Z,21.99
2018-08-22T20:05:20.380Z,21.93
2018-08-22T20:07:54.015Z,21.85
2018-08-22T20:10:27.747Z,21.81
2018-08-22T20:13:01.807Z,21.72
2018-08-22T20:15:35.172Z,21.60
2018-08-22T20:18:08.758Z,21.54
2018-08-22T20:20:42.212Z,21.52
2018-08-22T20:23:16.415Z,21.49
2018-08-22T20:25:49.854Z,21.42
2018-08-22T20:28:23.275Z,21.37
2018-08-22T20:31:01.053Z,21.27
2018-08-22T20:33:34.442Z,21.13
2018-08-22T20:36:07.815Z,21.11
2018-08-22T20:38:41.238Z,21.10
2018-08-22T20:41:14.637Z,21.04
2018-08-22T20:43:48.043Z,20.95
2018-08-22T20:46:21.608Z,20.89
2018-08-22T20:48:55.057Z,20.87
2018-08-22T20:51:30.195Z,20.86
2018-08-22T20:54:08.775Z,20.84
2018-08-22T20:56:48.214Z,20.75
2018-08-22T20:59:22.983Z,20.64
2018-08-22T21:02:03.790Z,20.61
2018-08-22T21:04:37.512Z,20.57
2018-08-22T21:07:11.650Z,20.48
2018-08-22T21:09:45.151Z,20.42
2018-08-22T21:12:18.578Z,20.38
2018-08-22T21:14:52.053Z,20.32
2018-08-22T21:17:25.613Z,20.25
2018-08-22T21:19:59.542Z,20.19
2018-08-22T21:22:33.895Z,20.14
2018-08-22T21:25:07.647Z,20.07
2018-08-22T21:27:41.951Z,20.01
2018-08-22T21:30:16.843Z,19.96
2018-08-22T21:32:50.643Z,19.92
2018-08-22T21:35:25.287Z,19.85
2018-08-22T21:38:04.568Z,19.84
2018-08-22T21:40:37.973Z,19.78
2018-08-22T21:43:12.975Z,19.71
2018-08-22T21:45:49.127Z,19.62
2018-08-22T21:48:25.755Z,19.57
2018-08-22T21:50:59.221Z,19.48
2018-08-22T21:53:32.632Z,19.48
2018-08-22T21:56:06.068Z,19.48
2018-08-22T21:58:39.451Z,19.44
2018-08-22T22:01:12.866Z,19.37
2018-08-22T22:03:46.307Z,19.33
2018-08-22T22:06:19.731Z,19.29
2018-08-22T22:08:53.125Z,19.27
2018-08-22T22:11:26.519Z,19.28
2018-08-22T22:14:08.072Z,19.22
2018-08-22T22:16:41.467Z,19.10
2018-08-22T22:19:14.873Z,19.07
2018-08-22T22:21:48.260Z,19.03
2018-08-22T22:24:21.663Z,19.03
2018-08-22T22:26:55.103Z,19.05
2018-08-22T22:29:30.892Z,19.06
2018-08-22T22:32:04.275Z,19.05
2018-08-22T22:34:37.875Z,19.05
2018-08-22T22:37:11.253Z,19.08
2018-08-22T22:39:45.722Z,19.09
2018-08-22T22:42:24.459Z,19.08
2018-08-22T22:44:59.071Z,19.05
2018-08-22T22:47:33.807Z,19.00
2018-08-22T22:50:07.272Z,18.95
2018-08-22T22:52:42.048Z,18.91
2018-08-22T22:55:15.462Z,18.85
2018-08-22T22:57:49.012Z,18.84
2018-08-22T23:00:22.588Z,18.81
2018-08-22T23:03:01.318Z,18.76
2018-08-22T23:05:35.000Z,18.69
2018-08-22T23:08:08.573Z,18.67
2018-08-22T23:10:42.173Z,18.63
2018-08-22T23:13:15.708Z,18.55
2018-08-22T23:15:49.314Z,18.51
2018-08-22T23:18:22.965Z,18.46
2018-08-22T23:23:37.000Z,18.36
2018-08-22T23:26:26.204Z,18.35
2018-08-22T23:28:59.782Z,18.33
2018-08-22T23:31:33.375Z,18.31
2018-08-22T23:34:06.945Z,18.27
2018-08-22T23:36:40.535Z,18.18
2018-08-22T23:39:14.100Z,18.12
2018-08-22T23:41:47.713Z,18.10
2018-08-22T23:44:21.279Z,18.07
2018-08-22T23:46:54.919Z,17.99
2018-08-22T23:49:28.565Z,17.95
2018-08-22T23:52:02.154Z,17.88
2018-08-22T23:54:35.978Z,17.89
2018-08-22T23:57:09.622Z,17.89
2018-08-22T23:59:43.157Z,17.88
